sensor_id;sensor_type;location;lat;lon;timestamp;P1;durP1;ratioP1;P2;durP2;ratioP2
11228;SDS011;5671;47.936;8.716;2023-04-03T00:02:02;1.30;;;1.30;;
11228;SDS011;5671;47.936;8.716;2023-04-03T00:04:28;1.37;;;1.27;;
11228;SDS011;5671;47.936;8.716;2023-04-03T00:06:55;1.60;;;1.40;;
11228;SDS011;5671;47.936;8.716;2023-04-03T00:09:22;2.63;;;1.50;;
11228;SDS011;5671;47.936;8.716;2023-04-03T00:11:49;1.80;;;1.70;;
11228;SDS011;5671;47.936;8.716;2023-04-03T00:14:16;1.17;;;1.17;;
11228;SDS011;5671;47.936;8.716;2023-04-03T00:16:43;1.50;;;1.40;;
11228;SDS011;5671;47.936;8.716;2023-04-03T00:19:11;1.10;;;1.10;;
11228;SDS011;5671;47.936;8.716;2023-04-03T00:21:38;1.17;;;1.17;;
11228;SDS011;5671;47.936;8.716;2023-04-03T00:24:05;1.10;;;1.10;;
11228;SDS011;5671;47.936;8.716;2023-04-03T00:26:32;1.10;;;1.10;;
11228;SDS011;5671;47.936;8.716;2023-04-03T00:28:59;1.10;;;1.10;;
11228;SDS011;5671;47.936;8.716;2023-04-03T00:31:26;1.07;;;0.93;;
11228;SDS011;5671;47.936;8.716;2023-04-03T00:33:53;1.00;;;1.00;;
11228;SDS011;5671;47.936;8.716;2023-04-03T00:36:21;2.13;;;1.30;;
11228;SDS011;5671;47.936;8.716;2023-04-03T00:38:48;1.07;;;1.00;;
11228;SDS011;5671;47.936;8.716;2023-04-03T00:41:15;0.80;;;0.80;;
11228;SDS011;5671;47.936;8.716;2023-04-03T00:43:41;1.10;;;1.10;;
11228;SDS011;5671;47.936;8.716;2023-04-03T00:46:08;1.23;;;1.20;;
11228;SDS011;5671;47.936;8.716;2023-04-03T00:48:36;2.03;;;1.00;;
11228;SDS011;5671;47.936;8.716;2023-04-03T00:51:06;1.00;;;1.00;;
11228;SDS011;5671;47.936;8.716;2023-04-03T00:53:38;0.90;;;0.90;;
11228;SDS011;5671;47.936;8.716;2023-04-03T00:56:10;0.97;;;0.97;;
11228;SDS011;5671;47.936;8.716;2023-04-03T00:58:41;0.70;;;0.70;;
11228;SDS011;5671;47.936;8.716;2023-04-03T01:01:12;1.10;;;1.10;;
11228;SDS011;5671;47.936;8.716;2023-04-03T01:03:44;1.33;;;1.20;;
11228;SDS011;5671;47.936;8.716;2023-04-03T01:06:11;1.93;;;1.40;;
11228;SDS011;5671;47.936;8.716;2023-04-03T01:08:42;1.50;;;1.40;;
11228;SDS011;5671;47.936;8.716;2023-04-03T01:11:11;1.63;;;1.53;;
11228;SDS011;5671;47.936;8.716;2023-04-03T01:13:38;1.57;;;1.47;;
11228;SDS011;5671;47.936;8.716;2023-04-03T01:16:06;1.67;;;1.57;;
11228;SDS011;5671;47.936;8.716;2023-04-03T01:18:33;2.07;;;1.87;;
11228;SDS011;5671;47.936;8.716;2023-04-03T01:21:11;2.10;;;1.90;;
11228;SDS011;5671;47.936;8.716;2023-04-03T01:26:57;1.90;;;1.80;;
11228;SDS011;5671;47.936;8.716;2023-04-03T01:29:24;2.20;;;2.00;;
11228;SDS011;5671;47.936;8.716;2023-04-03T01:31:53;2.10;;;2.00;;
11228;SDS011;5671;47.936;8.716;2023-04-03T01:34:21;5.40;;;1.60;;
11228;SDS011;5671;47.936;8.716;2023-04-03T01:36:48;2.87;;;1.80;;
11228;SDS011;5671;47.936;8.716;2023-04-03T01:39:15;2.70;;;2.20;;
11228;SDS011;5671;47.936;8.716;2023-04-03T01:41:42;2.10;;;2.00;;
11228;SDS011;5671;47.936;8.716;2023-04-03T01:44:10;2.60;;;2.40;;
11228;SDS011;5671;47.936;8.716;2023-04-03T01:46:37;4.80;;;2.13;;
11228;SDS011;5671;47.936;8.716;2023-04-03T01:49:05;2.60;;;2.40;;
11228;SDS011;5671;47.936;8.716;2023-04-03T01:51:32;2.87;;;2.60;;
11228;SDS011;5671;47.936;8.716;2023-04-03T01:53:59;2.63;;;2.43;;
11228;SDS011;5671;47.936;8.716;2023-04-03T01:56:26;2.43;;;2.23;;
11228;SDS011;5671;47.936;8.716;2023-04-03T01:58:53;2.70;;;2.50;;
11228;SDS011;5671;47.936;8.716;2023-04-03T02:01:20;3.13;;;2.80;;
11228;SDS011;5671;47.936;8.716;2023-04-03T02:03:47;3.93;;;2.40;;
11228;SDS011;5671;47.936;8.716;2023-04-03T02:06:15;2.97;;;2.77;;
11228;SDS011;5671;47.936;8.716;2023-04-03T02:08:42;2.77;;;2.57;;
11228;SDS011;5671;47.936;8.716;2023-04-03T02:11:08;2.50;;;2.30;;
11228;SDS011;5671;47.936;8.716;2023-04-03T02:13:35;2.33;;;2.20;;
11228;SDS011;5671;47.936;8.716;2023-04-03T02:16:06;2.30;;;2.10;;
11228;SDS011;5671;47.936;8.716;2023-04-03T02:18:34;2.27;;;2.17;;
11228;SDS011;5671;47.936;8.716;2023-04-03T02:21:01;2.30;;;2.20;;
11228;SDS011;5671;47.936;8.716;2023-04-03T02:23:30;2.87;;;2.30;;
11228;SDS011;5671;47.936;8.716;2023-04-03T02:26:03;2.33;;;2.23;;
11228;SDS011;5671;47.936;8.716;2023-04-03T02:28:34;2.30;;;2.17;;
11228;SDS011;5671;47.936;8.716;2023-04-03T02:31:01;2.47;;;2.30;;
11228;SDS011;5671;47.936;8.716;2023-04-03T02:33:28;2.50;;;2.30;;
11228;SDS011;5671;47.936;8.716;2023-04-03T02:35:55;2.97;;;2.50;;
11228;SDS011;5671;47.936;8.716;2023-04-03T02:38:22;2.67;;;2.47;;
11228;SDS011;5671;47.936;8.716;2023-04-03T02:40:51;2.53;;;2.33;;
11228;SDS011;5671;47.936;8.716;2023-04-03T02:43:18;2.60;;;2.40;;
11228;SDS011;5671;47.936;8.716;2023-04-03T02:45:45;2.73;;;2.50;;
11228;SDS011;5671;47.936;8.716;2023-04-03T02:48:12;2.57;;;2.37;;
11228;SDS011;5671;47.936;8.716;2023-04-03T02:50:39;2.80;;;2.60;;
11228;SDS011;5671;47.936;8.716;2023-04-03T02:53:06;2.87;;;2.67;;
11228;SDS011;5671;47.936;8.716;2023-04-03T02:55:33;2.93;;;2.70;;
11228;SDS011;5671;47.936;8.716;2023-04-03T02:58:01;3.60;;;3.30;;
11228;SDS011;5671;47.936;8.716;2023-04-03T03:00:28;3.17;;;2.97;;
11228;SDS011;5671;47.936;8.716;2023-04-03T03:02:55;3.47;;;3.17;;
11228;SDS011;5671;47.936;8.716;2023-04-03T03:05:22;3.10;;;2.90;;
11228;SDS011;5671;47.936;8.716;2023-04-03T03:07:49;3.37;;;3.17;;
11228;SDS011;5671;47.936;8.716;2023-04-03T03:10:16;3.63;;;3.33;;
11228;SDS011;5671;47.936;8.716;2023-04-03T03:12:43;3.90;;;3.60;;
11228;SDS011;5671;47.936;8.716;2023-04-03T03:15:11;4.23;;;3.83;;
11228;SDS011;5671;47.936;8.716;2023-04-03T03:17:38;4.10;;;3.70;;
11228;SDS011;5671;47.936;8.716;2023-04-03T03:20:06;4.03;;;3.73;;
11228;SDS011;5671;47.936;8.716;2023-04-03T03:22:33;4.33;;;3.93;;
11228;SDS011;5671;47.936;8.716;2023-04-03T03:25:00;5.83;;;4.47;;
11228;SDS011;5671;47.936;8.716;2023-04-03T03:27:28;5.03;;;4.53;;
11228;SDS011;5671;47.936;8.716;2023-04-03T03:29:55;5.97;;;5.13;;
11228;SDS011;5671;47.936;8.716;2023-04-03T03:32:23;5.53;;;5.03;;
11228;SDS011;5671;47.936;8.716;2023-04-03T03:34:50;5.33;;;4.83;;
11228;SDS011;5671;47.936;8.716;2023-04-03T03:37:17;5.37;;;4.87;;
11228;SDS011;5671;47.936;8.716;2023-04-03T03:39:43;5.70;;;5.20;;
11228;SDS011;5671;47.936;8.716;2023-04-03T03:42:10;5.73;;;5.23;;
11228;SDS011;5671;47.936;8.716;2023-04-03T03:44:37;5.70;;;5.07;;
11228;SDS011;5671;47.936;8.716;2023-04-03T03:47:04;6.00;;;5.30;;
11228;SDS011;5671;47.936;8.716;2023-04-03T03:49:32;6.30;;;5.37;;
11228;SDS011;5671;47.936;8.716;2023-04-03T03:52:00;5.73;;;5.13;;
11228;SDS011;5671;47.936;8.716;2023-04-03T03:54:27;5.37;;;4.87;;
11228;SDS011;5671;47.936;8.716;2023-04-03T03:57:01;5.30;;;4.80;;
11228;SDS011;5671;47.936;8.716;2023-04-03T03:59:28;5.30;;;4.53;;
11228;SDS011;5671;47.936;8.716;2023-04-03T04:01:55;5.80;;;5.30;;
11228;SDS011;5671;47.936;8.716;2023-04-03T04:04:21;5.33;;;4.83;;
11228;SDS011;5671;47.936;8.716;2023-04-03T04:06:50;5.43;;;4.93;;
11228;SDS011;5671;47.936;8.716;2023-04-03T04:09:17;5.43;;;4.93;;
11228;SDS011;5671;47.936;8.716;2023-04-03T04:11:44;5.50;;;5.00;;
11228;SDS011;5671;47.936;8.716;2023-04-03T04:14:10;5.37;;;4.87;;
11228;SDS011;5671;47.936;8.716;2023-04-03T04:16:38;5.27;;;4.77;;
11228;SDS011;5671;47.936;8.716;2023-04-03T04:19:05;6.43;;;4.53;;
11228;SDS011;5671;47.936;8.716;2023-04-03T04:21:32;4.70;;;4.30;;
11228;SDS011;5671;47.936;8.716;2023-04-03T04:24:00;5.17;;;4.63;;
11228;SDS011;5671;47.936;8.716;2023-04-03T04:26:27;4.80;;;4.30;;
11228;SDS011;5671;47.936;8.716;2023-04-03T04:28:54;4.80;;;4.30;;
11228;SDS011;5671;47.936;8.716;2023-04-03T04:31:20;4.90;;;4.50;;
11228;SDS011;5671;47.936;8.716;2023-04-03T04:33:47;5.07;;;4.50;;
11228;SDS011;5671;47.936;8.716;2023-04-03T04:36:14;4.30;;;3.90;;
11228;SDS011;5671;47.936;8.716;2023-04-03T04:38:41;4.57;;;4.17;;
11228;SDS011;5671;47.936;8.716;2023-04-03T04:41:09;4.70;;;4.30;;
11228;SDS011;5671;47.936;8.716;2023-04-03T04:43:36;4.20;;;3.90;;
11228;SDS011;5671;47.936;8.716;2023-04-03T04:46:03;4.50;;;4.03;;
11228;SDS011;5671;47.936;8.716;2023-04-03T04:48:32;4.37;;;3.97;;
11228;SDS011;5671;47.936;8.716;2023-04-03T04:50:59;4.43;;;3.80;;
11228;SDS011;5671;47.936;8.716;2023-04-03T04:53:26;4.37;;;3.97;;
11228;SDS011;5671;47.936;8.716;2023-04-03T04:55:53;3.97;;;3.67;;
11228;SDS011;5671;47.936;8.716;2023-04-03T04:58:21;4.27;;;3.87;;
11228;SDS011;5671;47.936;8.716;2023-04-03T05:00:48;5.10;;;4.60;;
11228;SDS011;5671;47.936;8.716;2023-04-03T05:03:15;4.23;;;3.80;;
11228;SDS011;5671;47.936;8.716;2023-04-03T05:05:42;4.83;;;4.17;;
11228;SDS011;5671;47.936;8.716;2023-04-03T05:08:09;4.10;;;3.80;;
11228;SDS011;5671;47.936;8.716;2023-04-03T05:10:36;3.90;;;3.60;;
11228;SDS011;5671;47.936;8.716;2023-04-03T05:13:02;4.13;;;3.73;;
11228;SDS011;5671;47.936;8.716;2023-04-03T05:15:31;3.97;;;3.67;;
11228;SDS011;5671;47.936;8.716;2023-04-03T05:17:57;4.10;;;3.63;;
11228;SDS011;5671;47.936;8.716;2023-04-03T05:20:24;4.00;;;3.60;;
11228;SDS011;5671;47.936;8.716;2023-04-03T05:22:51;3.87;;;3.57;;
11228;SDS011;5671;47.936;8.716;2023-04-03T05:25:18;4.07;;;3.60;;
11228;SDS011;5671;47.936;8.716;2023-04-03T05:27:45;3.80;;;3.50;;
11228;SDS011;5671;47.936;8.716;2023-04-03T05:30:12;4.10;;;3.70;;
11228;SDS011;5671;47.936;8.716;2023-04-03T05:32:40;3.50;;;2.93;;
11228;SDS011;5671;47.936;8.716;2023-04-03T05:35:08;3.90;;;3.50;;
11228;SDS011;5671;47.936;8.716;2023-04-03T05:37:35;3.33;;;3.03;;
11228;SDS011;5671;47.936;8.716;2023-04-03T05:40:03;3.33;;;3.03;;
11228;SDS011;5671;47.936;8.716;2023-04-03T05:42:30;3.60;;;3.30;;
11228;SDS011;5671;47.936;8.716;2023-04-03T05:44:57;3.00;;;2.80;;
11228;SDS011;5671;47.936;8.716;2023-04-03T05:47:27;3.37;;;2.80;;
11228;SDS011;5671;47.936;8.716;2023-04-03T05:49:55;2.93;;;2.63;;
11228;SDS011;5671;47.936;8.716;2023-04-03T05:52:23;2.90;;;2.70;;
11228;SDS011;5671;47.936;8.716;2023-04-03T05:54:53;2.67;;;2.47;;
11228;SDS011;5671;47.936;8.716;2023-04-03T05:57:20;2.83;;;2.63;;
11228;SDS011;5671;47.936;8.716;2023-04-03T05:59:47;2.60;;;2.40;;
11228;SDS011;5671;47.936;8.716;2023-04-03T06:02:15;2.93;;;2.67;;
11228;SDS011;5671;47.936;8.716;2023-04-03T06:04:43;2.70;;;2.50;;
11228;SDS011;5671;47.936;8.716;2023-04-03T06:07:12;2.53;;;2.30;;
11228;SDS011;5671;47.936;8.716;2023-04-03T06:09:40;3.07;;;2.73;;
11228;SDS011;5671;47.936;8.716;2023-04-03T06:12:08;2.50;;;2.30;;
11228;SDS011;5671;47.936;8.716;2023-04-03T06:14:36;2.80;;;2.57;;
11228;SDS011;5671;47.936;8.716;2023-04-03T06:17:03;2.87;;;2.67;;
11228;SDS011;5671;47.936;8.716;2023-04-03T06:19:31;2.20;;;2.10;;
11228;SDS011;5671;47.936;8.716;2023-04-03T06:21:57;3.17;;;2.60;;
11228;SDS011;5671;47.936;8.716;2023-04-03T06:24:26;4.83;;;2.33;;
11228;SDS011;5671;47.936;8.716;2023-04-03T06:26:53;2.80;;;2.33;;
11228;SDS011;5671;47.936;8.716;2023-04-03T06:29:21;11.67;;;2.60;;
11228;SDS011;5671;47.936;8.716;2023-04-03T06:31:48;3.03;;;2.43;;
11228;SDS011;5671;47.936;8.716;2023-04-03T06:34:15;2.97;;;2.60;;
11228;SDS011;5671;47.936;8.716;2023-04-03T06:36:43;2.13;;;2.03;;
11228;SDS011;5671;47.936;8.716;2023-04-03T06:39:11;2.90;;;2.37;;
11228;SDS011;5671;47.936;8.716;2023-04-03T06:41:42;3.83;;;2.50;;
11228;SDS011;5671;47.936;8.716;2023-04-03T06:44:09;3.30;;;2.40;;
11228;SDS011;5671;47.936;8.716;2023-04-03T06:46:38;2.50;;;2.30;;
11228;SDS011;5671;47.936;8.716;2023-04-03T06:49:05;2.53;;;2.33;;
11228;SDS011;5671;47.936;8.716;2023-04-03T06:51:33;2.90;;;2.57;;
11228;SDS011;5671;47.936;8.716;2023-04-03T06:54:01;3.53;;;2.77;;
11228;SDS011;5671;47.936;8.716;2023-04-03T06:56:29;3.47;;;2.47;;
11228;SDS011;5671;47.936;8.716;2023-04-03T06:58:57;4.20;;;2.30;;
11228;SDS011;5671;47.936;8.716;2023-04-03T07:01:25;3.10;;;2.80;;
11228;SDS011;5671;47.936;8.716;2023-04-03T07:03:53;4.87;;;2.60;;
11228;SDS011;5671;47.936;8.716;2023-04-03T07:06:20;3.33;;;3.03;;
11228;SDS011;5671;47.936;8.716;2023-04-03T07:08:48;2.37;;;2.17;;
11228;SDS011;5671;47.936;8.716;2023-04-03T07:11:15;2.70;;;2.50;;
11228;SDS011;5671;47.936;8.716;2023-04-03T07:13:42;3.07;;;2.40;;
11228;SDS011;5671;47.936;8.716;2023-04-03T07:16:11;3.37;;;2.30;;
11228;SDS011;5671;47.936;8.716;2023-04-03T07:18:37;3.80;;;2.73;;
11228;SDS011;5671;47.936;8.716;2023-04-03T07:21:05;2.93;;;2.50;;
11228;SDS011;5671;47.936;8.716;2023-04-03T07:23:31;2.53;;;2.33;;
11228;SDS011;5671;47.936;8.716;2023-04-03T07:25:58;2.20;;;2.00;;
11228;SDS011;5671;47.936;8.716;2023-04-03T07:28:26;5.63;;;2.47;;
11228;SDS011;5671;47.936;8.716;2023-04-03T07:30:54;4.03;;;2.20;;
11228;SDS011;5671;47.936;8.716;2023-04-03T07:33:27;2.60;;;2.40;;
11228;SDS011;5671;47.936;8.716;2023-04-03T07:35:56;4.10;;;2.07;;
11228;SDS011;5671;47.936;8.716;2023-04-03T07:38:23;2.30;;;1.90;;
11228;SDS011;5671;47.936;8.716;2023-04-03T07:40:50;2.20;;;2.00;;
11228;SDS011;5671;47.936;8.716;2023-04-03T07:43:18;2.47;;;2.00;;
11228;SDS011;5671;47.936;8.716;2023-04-03T07:45:47;2.20;;;2.10;;
11228;SDS011;5671;47.936;8.716;2023-04-03T07:48:16;2.17;;;1.90;;
11228;SDS011;5671;47.936;8.716;2023-04-03T07:50:45;2.10;;;1.90;;
11228;SDS011;5671;47.936;8.716;2023-04-03T07:53:12;2.63;;;1.87;;
11228;SDS011;5671;47.936;8.716;2023-04-03T07:55:39;2.27;;;2.00;;
11228;SDS011;5671;47.936;8.716;2023-04-03T07:58:08;1.87;;;1.63;;
11228;SDS011;5671;47.936;8.716;2023-04-03T08:00:36;2.03;;;1.70;;
11228;SDS011;5671;47.936;8.716;2023-04-03T08:03:03;2.17;;;1.93;;
11228;SDS011;5671;47.936;8.716;2023-04-03T08:05:36;3.03;;;1.80;;
11228;SDS011;5671;47.936;8.716;2023-04-03T08:08:05;1.90;;;1.80;;
11228;SDS011;5671;47.936;8.716;2023-04-03T08:10:32;1.70;;;1.60;;
11228;SDS011;5671;47.936;8.716;2023-04-03T08:13:00;1.93;;;1.77;;
11228;SDS011;5671;47.936;8.716;2023-04-03T08:15:27;3.17;;;1.90;;
11228;SDS011;5671;47.936;8.716;2023-04-03T08:17:54;2.57;;;1.90;;
11228;SDS011;5671;47.936;8.716;2023-04-03T08:20:21;2.20;;;2.00;;
11228;SDS011;5671;47.936;8.716;2023-04-03T08:22:48;1.77;;;1.67;;
11228;SDS011;5671;47.936;8.716;2023-04-03T08:25:17;2.40;;;2.00;;
11228;SDS011;5671;47.936;8.716;2023-04-03T08:27:44;1.70;;;1.60;;
11228;SDS011;5671;47.936;8.716;2023-04-03T08:30:11;2.13;;;1.93;;
11228;SDS011;5671;47.936;8.716;2023-04-03T08:32:38;1.90;;;1.80;;
11228;SDS011;5671;47.936;8.716;2023-04-03T08:35:07;2.10;;;1.90;;
11228;SDS011;5671;47.936;8.716;2023-04-03T08:37:34;1.90;;;1.80;;
11228;SDS011;5671;47.936;8.716;2023-04-03T08:40:02;2.70;;;1.83;;
11228;SDS011;5671;47.936;8.716;2023-04-03T08:42:34;2.53;;;1.90;;
11228;SDS011;5671;47.936;8.716;2023-04-03T08:45:08;1.77;;;1.60;;
11228;SDS011;5671;47.936;8.716;2023-04-03T08:47:38;2.50;;;1.90;;
11228;SDS011;5671;47.936;8.716;2023-04-03T08:50:11;2.47;;;1.70;;
11228;SDS011;5671;47.936;8.716;2023-04-03T08:52:41;2.47;;;1.90;;
11228;SDS011;5671;47.936;8.716;2023-04-03T08:55:14;2.13;;;1.93;;
11228;SDS011;5671;47.936;8.716;2023-04-03T08:57:48;2.00;;;1.80;;
11228;SDS011;5671;47.936;8.716;2023-04-03T09:00:18;2.20;;;2.00;;
11228;SDS011;5671;47.936;8.716;2023-04-03T09:02:46;2.00;;;1.80;;
11228;SDS011;5671;47.936;8.716;2023-04-03T09:05:15;2.53;;;1.80;;
11228;SDS011;5671;47.936;8.716;2023-04-03T09:07:44;2.37;;;1.70;;
11228;SDS011;5671;47.936;8.716;2023-04-03T09:10:14;3.10;;;1.63;;
11228;SDS011;5671;47.936;8.716;2023-04-03T09:12:46;2.17;;;1.97;;
11228;SDS011;5671;47.936;8.716;2023-04-03T09:15:20;2.00;;;1.80;;
11228;SDS011;5671;47.936;8.716;2023-04-03T09:17:52;1.77;;;1.67;;
11228;SDS011;5671;47.936;8.716;2023-04-03T09:20:26;2.33;;;1.90;;
11228;SDS011;5671;47.936;8.716;2023-04-03T09:23:04;1.97;;;1.87;;
11228;SDS011;5671;47.936;8.716;2023-04-03T09:25:38;2.40;;;1.90;;
11228;SDS011;5671;47.936;8.716;2023-04-03T09:28:07;2.60;;;1.73;;
11228;SDS011;5671;47.936;8.716;2023-04-03T09:30:35;2.77;;;2.00;;
11228;SDS011;5671;47.936;8.716;2023-04-03T09:33:02;2.50;;;1.90;;
11228;SDS011;5671;47.936;8.716;2023-04-03T09:35:29;2.10;;;1.90;;
11228;SDS011;5671;47.936;8.716;2023-04-03T09:37:58;1.97;;;1.83;;
11228;SDS011;5671;47.936;8.716;2023-04-03T09:40:30;1.70;;;1.60;;
11228;SDS011;5671;47.936;8.716;2023-04-03T09:45:48;1.87;;;1.70;;
11228;SDS011;5671;47.936;8.716;2023-04-03T09:48:18;2.17;;;1.90;;
11228;SDS011;5671;47.936;8.716;2023-04-03T09:50:58;2.53;;;1.90;;
11228;SDS011;5671;47.936;8.716;2023-04-03T09:53:32;2.63;;;1.90;;
11228;SDS011;5671;47.936;8.716;2023-04-03T09:56:02;2.20;;;1.60;;
11228;SDS011;5671;47.936;8.716;2023-04-03T09:58:33;1.87;;;1.50;;
11228;SDS011;5671;47.936;8.716;2023-04-03T10:01:05;2.17;;;1.97;;
11228;SDS011;5671;47.936;8.716;2023-04-03T10:03:33;1.53;;;1.43;;
11228;SDS011;5671;47.936;8.716;2023-04-03T10:06:02;1.90;;;1.70;;
11228;SDS011;5671;47.936;8.716;2023-04-03T10:08:32;3.57;;;1.60;;
11228;SDS011;5671;47.936;8.716;2023-04-03T10:11:08;2.10;;;1.87;;
11228;SDS011;5671;47.936;8.716;2023-04-03T10:13:54;2.20;;;1.83;;
11228;SDS011;5671;47.936;8.716;2023-04-03T10:16:25;2.10;;;1.90;;
11228;SDS011;5671;47.936;8.716;2023-04-03T10:19:01;2.40;;;2.03;;
11228;SDS011;5671;47.936;8.716;2023-04-03T10:21:50;2.20;;;2.00;;
11228;SDS011;5671;47.936;8.716;2023-04-03T10:24:23;2.37;;;2.17;;
11228;SDS011;5671;47.936;8.716;2023-04-03T10:26:56;2.00;;;1.80;;
11228;SDS011;5671;47.936;8.716;2023-04-03T10:29:42;2.07;;;1.73;;
11228;SDS011;5671;47.936;8.716;2023-04-03T10:32:27;3.57;;;2.00;;
11228;SDS011;5671;47.936;8.716;2023-04-03T10:35:08;4.40;;;2.00;;
11228;SDS011;5671;47.936;8.716;2023-04-03T10:37:45;2.00;;;1.80;;
11228;SDS011;5671;47.936;8.716;2023-04-03T10:40:24;1.90;;;1.80;;
11228;SDS011;5671;47.936;8.716;2023-04-03T10:42:59;1.67;;;1.57;;
11228;SDS011;5671;47.936;8.716;2023-04-03T10:45:32;2.33;;;2.13;;
11228;SDS011;5671;47.936;8.716;2023-04-03T10:48:14;3.23;;;1.87;;
11228;SDS011;5671;47.936;8.716;2023-04-03T10:50:49;1.53;;;1.43;;
11228;SDS011;5671;47.936;8.716;2023-04-03T10:53:24;2.57;;;2.10;;
11228;SDS011;5671;47.936;8.716;2023-04-03T10:56:00;4.27;;;2.07;;
11228;SDS011;5671;47.936;8.716;2023-04-03T10:58:32;2.63;;;1.90;;
11228;SDS011;5671;47.936;8.716;2023-04-03T11:01:05;2.57;;;2.30;;
11228;SDS011;5671;47.936;8.716;2023-04-03T11:03:35;2.40;;;2.20;;
11228;SDS011;5671;47.936;8.716;2023-04-03T11:06:06;2.77;;;1.97;;
11228;SDS011;5671;47.936;8.716;2023-04-03T11:08:37;2.60;;;2.40;;
11228;SDS011;5671;47.936;8.716;2023-04-03T11:11:09;2.90;;;2.20;;
11228;SDS011;5671;47.936;8.716;2023-04-03T11:13:41;2.17;;;1.97;;
11228;SDS011;5671;47.936;8.716;2023-04-03T11:16:14;2.20;;;2.00;;
11228;SDS011;5671;47.936;8.716;2023-04-03T11:18:46;2.13;;;1.73;;
11228;SDS011;5671;47.936;8.716;2023-04-03T11:21:19;2.40;;;2.20;;
11228;SDS011;5671;47.936;8.716;2023-04-03T11:23:48;2.00;;;1.80;;
11228;SDS011;5671;47.936;8.716;2023-04-03T11:26:17;3.33;;;2.10;;
11228;SDS011;5671;47.936;8.716;2023-04-03T11:28:45;3.20;;;2.30;;
11228;SDS011;5671;47.936;8.716;2023-04-03T11:31:29;2.80;;;2.20;;
11228;SDS011;5671;47.936;8.716;2023-04-03T11:34:08;3.03;;;2.40;;
11228;SDS011;5671;47.936;8.716;2023-04-03T11:36:45;1.80;;;1.70;;
11228;SDS011;5671;47.936;8.716;2023-04-03T11:39:17;4.83;;;1.87;;
11228;SDS011;5671;47.936;8.716;2023-04-03T11:41:48;2.67;;;1.80;;
11228;SDS011;5671;47.936;8.716;2023-04-03T11:44:29;2.03;;;1.83;;
11228;SDS011;5671;47.936;8.716;2023-04-03T11:47:08;3.10;;;1.87;;
11228;SDS011;5671;47.936;8.716;2023-04-03T11:49:52;2.67;;;2.20;;
11228;SDS011;5671;47.936;8.716;2023-04-03T11:58:21;2.23;;;1.80;;
11228;SDS011;5671;47.936;8.716;2023-04-03T12:00:52;3.43;;;1.57;;
11228;SDS011;5671;47.936;8.716;2023-04-03T12:12:55;3.70;;;1.40;;
11228;SDS011;5671;47.936;8.716;2023-04-03T12:21:21;1.60;;;1.50;;
11228;SDS011;5671;47.936;8.716;2023-04-03T12:23:56;1.50;;;1.40;;
11228;SDS011;5671;47.936;8.716;2023-04-03T12:26:28;1.60;;;1.50;;
11228;SDS011;5671;47.936;8.716;2023-04-03T12:28:58;1.57;;;1.40;;
11228;SDS011;5671;47.936;8.716;2023-04-03T12:31:32;1.80;;;1.43;;
11228;SDS011;5671;47.936;8.716;2023-04-03T12:34:15;1.73;;;1.40;;
11228;SDS011;5671;47.936;8.716;2023-04-03T12:36:53;2.13;;;1.20;;
11228;SDS011;5671;47.936;8.716;2023-04-03T12:42:25;1.60;;;1.50;;
11228;SDS011;5671;47.936;8.716;2023-04-03T12:45:09;1.60;;;1.50;;
11228;SDS011;5671;47.936;8.716;2023-04-03T12:47:43;1.60;;;1.50;;
11228;SDS011;5671;47.936;8.716;2023-04-03T12:50:20;5.10;;;1.50;;
11228;SDS011;5671;47.936;8.716;2023-04-03T12:52:51;2.53;;;1.40;;
11228;SDS011;5671;47.936;8.716;2023-04-03T12:55:22;1.57;;;1.47;;
11228;SDS011;5671;47.936;8.716;2023-04-03T12:57:50;1.57;;;1.47;;
11228;SDS011;5671;47.936;8.716;2023-04-03T13:00:31;1.33;;;1.23;;
11228;SDS011;5671;47.936;8.716;2023-04-03T13:02:59;1.43;;;1.40;;
11228;SDS011;5671;47.936;8.716;2023-04-03T13:05:29;1.87;;;1.70;;
11228;SDS011;5671;47.936;8.716;2023-04-03T13:07:58;2.00;;;1.57;;
11228;SDS011;5671;47.936;8.716;2023-04-03T13:10:28;0.93;;;0.93;;
11228;SDS011;5671;47.936;8.716;2023-04-03T13:12:58;1.47;;;1.30;;
11228;SDS011;5671;47.936;8.716;2023-04-03T13:15:40;2.30;;;1.40;;
11228;SDS011;5671;47.936;8.716;2023-04-03T13:18:20;1.60;;;1.50;;
11228;SDS011;5671;47.936;8.716;2023-04-03T13:20:49;1.50;;;1.40;;
11228;SDS011;5671;47.936;8.716;2023-04-03T13:23:16;2.40;;;1.70;;
11228;SDS011;5671;47.936;8.716;2023-04-03T13:25:48;1.73;;;1.60;;
11228;SDS011;5671;47.936;8.716;2023-04-03T13:28:18;4.30;;;1.63;;
11228;SDS011;5671;47.936;8.716;2023-04-03T13:30:54;2.00;;;1.47;;
11228;SDS011;5671;47.936;8.716;2023-04-03T13:33:28;2.00;;;1.57;;
11228;SDS011;5671;47.936;8.716;2023-04-03T13:35:58;4.37;;;1.50;;
11228;SDS011;5671;47.936;8.716;2023-04-03T13:38:29;1.70;;;1.50;;
11228;SDS011;5671;47.936;8.716;2023-04-03T13:40:59;2.40;;;1.60;;
11228;SDS011;5671;47.936;8.716;2023-04-03T13:43:32;1.67;;;1.57;;
11228;SDS011;5671;47.936;8.716;2023-04-03T13:46:02;1.60;;;1.50;;
11228;SDS011;5671;47.936;8.716;2023-04-03T13:48:36;2.77;;;1.70;;
11228;SDS011;5671;47.936;8.716;2023-04-03T13:51:05;2.77;;;1.40;;
11228;SDS011;5671;47.936;8.716;2023-04-03T13:53:44;2.57;;;1.83;;
11228;SDS011;5671;47.936;8.716;2023-04-03T13:56:16;2.87;;;1.80;;
11228;SDS011;5671;47.936;8.716;2023-04-03T13:58:59;1.57;;;1.47;;
11228;SDS011;5671;47.936;8.716;2023-04-03T14:01:38;1.50;;;1.40;;
11228;SDS011;5671;47.936;8.716;2023-04-03T14:04:13;1.87;;;1.43;;
11228;SDS011;5671;47.936;8.716;2023-04-03T14:06:42;2.03;;;1.80;;
11228;SDS011;5671;47.936;8.716;2023-04-03T14:09:11;1.57;;;1.47;;
11228;SDS011;5671;47.936;8.716;2023-04-03T14:11:39;4.23;;;1.50;;
11228;SDS011;5671;47.936;8.716;2023-04-03T14:14:11;1.83;;;1.70;;
11228;SDS011;5671;47.936;8.716;2023-04-03T14:16:41;1.73;;;1.63;;
11228;SDS011;5671;47.936;8.716;2023-04-03T14:19:14;1.20;;;1.20;;
11228;SDS011;5671;47.936;8.716;2023-04-03T14:21:45;1.57;;;1.40;;
11228;SDS011;5671;47.936;8.716;2023-04-03T14:24:13;1.73;;;1.60;;
11228;SDS011;5671;47.936;8.716;2023-04-03T14:26:39;1.87;;;1.60;;
11228;SDS011;5671;47.936;8.716;2023-04-03T14:29:09;1.60;;;1.50;;
11228;SDS011;5671;47.936;8.716;2023-04-03T14:31:38;3.30;;;1.60;;
11228;SDS011;5671;47.936;8.716;2023-04-03T14:34:06;2.20;;;1.60;;
11228;SDS011;5671;47.936;8.716;2023-04-03T14:36:33;1.50;;;1.37;;
11228;SDS011;5671;47.936;8.716;2023-04-03T14:39:00;2.20;;;1.63;;
11228;SDS011;5671;47.936;8.716;2023-04-03T14:41:27;1.50;;;1.40;;
11228;SDS011;5671;47.936;8.716;2023-04-03T14:43:54;2.03;;;1.57;;
11228;SDS011;5671;47.936;8.716;2023-04-03T14:46:23;2.53;;;1.67;;
11228;SDS011;5671;47.936;8.716;2023-04-03T14:48:52;1.83;;;1.47;;
11228;SDS011;5671;47.936;8.716;2023-04-03T14:51:20;2.30;;;1.60;;
11228;SDS011;5671;47.936;8.716;2023-04-03T14:53:47;4.20;;;1.70;;
11228;SDS011;5671;47.936;8.716;2023-04-03T14:56:15;1.80;;;1.70;;
11228;SDS011;5671;47.936;8.716;2023-04-03T14:58:47;4.00;;;1.60;;
11228;SDS011;5671;47.936;8.716;2023-04-03T15:01:16;2.43;;;1.70;;
11228;SDS011;5671;47.936;8.716;2023-04-03T15:03:44;2.13;;;1.50;;
11228;SDS011;5671;47.936;8.716;2023-04-03T15:06:11;2.27;;;1.47;;
11228;SDS011;5671;47.936;8.716;2023-04-03T15:08:40;3.53;;;1.70;;
11228;SDS011;5671;47.936;8.716;2023-04-03T15:11:08;1.33;;;1.33;;
11228;SDS011;5671;47.936;8.716;2023-04-03T15:13:35;1.73;;;1.47;;
11228;SDS011;5671;47.936;8.716;2023-04-03T15:16:02;1.57;;;1.40;;
11228;SDS011;5671;47.936;8.716;2023-04-03T15:18:31;1.47;;;1.30;;
11228;SDS011;5671;47.936;8.716;2023-04-03T15:21:04;1.50;;;1.33;;
11228;SDS011;5671;47.936;8.716;2023-04-03T15:23:31;3.50;;;1.60;;
11228;SDS011;5671;47.936;8.716;2023-04-03T15:25:58;1.93;;;1.53;;
11228;SDS011;5671;47.936;8.716;2023-04-03T15:28:27;1.40;;;1.30;;
11228;SDS011;5671;47.936;8.716;2023-04-03T15:30:58;1.30;;;1.20;;
11228;SDS011;5671;47.936;8.716;2023-04-03T15:33:25;1.60;;;1.27;;
11228;SDS011;5671;47.936;8.716;2023-04-03T15:35:52;2.30;;;1.40;;
11228;SDS011;5671;47.936;8.716;2023-04-03T15:38:21;1.70;;;1.60;;
11228;SDS011;5671;47.936;8.716;2023-04-03T15:40:48;1.40;;;1.30;;
11228;SDS011;5671;47.936;8.716;2023-04-03T15:43:15;2.10;;;1.50;;
11228;SDS011;5671;47.936;8.716;2023-04-03T15:45:42;10.33;;;3.03;;